sensor_id;sensor_type;location;lat;lon;timestamp;pressure;altitude;pressure_sealevel;temperature;humidity
45078;BME280;60508;42.622;25.416;2023-04-30T00:00:18;96488.31;;;13.59;57.00
45078;BME280;60508;42.622;25.416;2023-04-30T00:02:44;96518.28;;;13.73;57.13
45078;BME280;60508;42.622;25.416;2023-04-30T00:05:10;96507.22;;;13.75;56.43
45078;BME280;60508;42.622;25.416;2023-04-30T00:07:37;96511.28;;;13.82;55.12
45078;BME280;60508;42.622;25.416;2023-04-30T00:10:08;96512.34;;;13.81;57.97
45078;BME280;60508;42.622;25.416;2023-04-30T00:12:35;96505.59;;;13.74;58.68
45078;BME280;60508;42.622;25.416;2023-04-30T00:15:02;96506.13;;;13.65;60.11
45078;BME280;60508;42.622;25.416;2023-04-30T00:17:29;96490.47;;;13.62;61.30
45078;BME280;60508;42.622;25.416;2023-04-30T00:19:55;96506.66;;;13.67;61.94
45078;BME280;60508;42.622;25.416;2023-04-30T00:22:21;96503.97;;;13.57;62.30
45078;BME280;60508;42.622;25.416;2023-04-30T00:24:47;96496.69;;;13.47;63.00
45078;BME280;60508;42.622;25.416;2023-04-30T00:27:13;96495.88;;;13.57;63.25
45078;BME280;60508;42.622;25.416;2023-04-30T00:29:40;96497.47;;;13.53;64.07
45078;BME280;60508;42.622;25.416;2023-04-30T00:32:06;96500.44;;;13.51;64.48
45078;BME280;60508;42.622;25.416;2023-04-30T00:34:32;96499.94;;;13.60;63.94
45078;BME280;60508;42.622;25.416;2023-04-30T00:36:57;96498.03;;;13.60;63.65
45078;BME280;60508;42.622;25.416;2023-04-30T00:39:23;96499.91;;;13.44;64.51
45078;BME280;60508;42.622;25.416;2023-04-30T00:41:49;96504.50;;;13.44;64.04
45078;BME280;60508;42.622;25.416;2023-04-30T00:44:16;96500.44;;;13.46;64.70
45078;BME280;60508;42.622;25.416;2023-04-30T00:46:42;96490.72;;;13.40;65.39
45078;BME280;60508;42.622;25.416;2023-04-30T00:49:08;96495.31;;;13.35;66.31
45078;BME280;60508;42.622;25.416;2023-04-30T00:51:34;96493.41;;;13.35;66.45
45078;BME280;60508;42.622;25.416;2023-04-30T00:54:01;96478.56;;;13.27;67.11
45078;BME280;60508;42.622;25.416;2023-04-30T00:56:30;96489.91;;;13.45;66.15
45078;BME280;60508;42.622;25.416;2023-04-30T00:58:56;96479.69;;;13.52;65.80
45078;BME280;60508;42.622;25.416;2023-04-30T01:01:27;96479.41;;;13.38;66.45
45078;BME280;60508;42.622;25.416;2023-04-30T01:03:57;96487.72;;;13.16;67.96
45078;BME280;60508;42.622;25.416;2023-04-30T01:06:24;96483.13;;;13.17;67.47
45078;BME280;60508;42.622;25.416;2023-04-30T01:08:51;96480.38;;;13.06;67.04
45078;BME280;60508;42.622;25.416;2023-04-30T01:11:32;96474.50;;;13.14;66.50
45078;BME280;60508;42.622;25.416;2023-04-30T01:14:12;96488.78;;;13.20;65.90
45078;BME280;60508;42.622;25.416;2023-04-30T01:16:50;96485.03;;;13.21;66.05
45078;BME280;60508;42.622;25.416;2023-04-30T01:19:45;96485.03;;;13.21;66.06
45078;BME280;60508;42.622;25.416;2023-04-30T01:25:13;96479.69;;;13.57;63.58
45078;BME280;60508;42.622;25.416;2023-04-30T01:30:17;96479.38;;;13.74;61.54
45078;BME280;60508;42.622;25.416;2023-04-30T01:32:43;96472.91;;;13.75;62.72
45078;BME280;60508;42.622;25.416;2023-04-30T01:35:10;96474.00;;;13.69;62.55
45078;BME280;60508;42.622;25.416;2023-04-30T01:37:46;96478.06;;;13.41;63.44
45078;BME280;60508;42.622;25.416;2023-04-30T01:40:28;96468.34;;;13.50;63.33
45078;BME280;60508;42.622;25.416;2023-04-30T01:43:05;96474.56;;;13.45;63.54
45078;BME280;60508;42.622;25.416;2023-04-30T01:46:07;96479.13;;;13.40;64.44
45078;BME280;60508;42.622;25.416;2023-04-30T01:48:57;96481.78;;;13.29;65.23
45078;BME280;60508;42.622;25.416;2023-04-30T01:51:39;96465.31;;;13.10;66.58
45078;BME280;60508;42.622;25.416;2023-04-30T01:54:21;96464.44;;;12.89;67.07
45078;BME280;60508;42.622;25.416;2023-04-30T01:57:05;96460.69;;;12.90;66.76
45078;BME280;60508;42.622;25.416;2023-04-30T01:59:37;96466.34;;;12.99;67.29
45078;BME280;60508;42.622;25.416;2023-04-30T02:02:05;96465.81;;;12.97;68.03
45078;BME280;60508;42.622;25.416;2023-04-30T02:04:31;96455.84;;;12.97;67.92
45078;BME280;60508;42.622;25.416;2023-04-30T02:06:58;96464.47;;;12.94;68.92
45078;BME280;60508;42.622;25.416;2023-04-30T02:09:24;96465.53;;;12.93;68.97
45078;BME280;60508;42.622;25.416;2023-04-30T02:11:51;96459.84;;;12.79;69.82
45078;BME280;60508;42.622;25.416;2023-04-30T02:14:17;96457.94;;;12.85;71.72
45078;BME280;60508;42.622;25.416;2023-04-30T02:16:44;96456.56;;;12.72;72.61
45078;BME280;60508;42.622;25.416;2023-04-30T02:19:10;96454.09;;;12.55;73.79
45078;BME280;60508;42.622;25.416;2023-04-30T02:21:37;96463.03;;;12.66;74.39
45078;BME280;60508;42.622;25.416;2023-04-30T02:24:05;96458.47;;;12.72;73.75
45078;BME280;60508;42.622;25.416;2023-04-30T02:26:31;96463.88;;;12.77;73.29
45078;BME280;60508;42.622;25.416;2023-04-30T02:28:58;96462.16;;;12.50;73.68
45078;BME280;60508;42.622;25.416;2023-04-30T02:31:23;96468.88;;;12.48;73.31
45078;BME280;60508;42.622;25.416;2023-04-30T02:33:49;96455.09;;;12.34;74.12
45078;BME280;60508;42.622;25.416;2023-04-30T02:36:15;96460.75;;;12.32;74.21
45078;BME280;60508;42.622;25.416;2023-04-30T02:38:41;96462.34;;;12.33;74.67
45078;BME280;60508;42.622;25.416;2023-04-30T02:41:07;96463.97;;;12.29;75.09
45078;BME280;60508;42.622;25.416;2023-04-30T02:43:34;96470.72;;;12.37;74.82
45078;BME280;60508;42.622;25.416;2023-04-30T02:46:00;96473.47;;;12.47;74.90
45078;BME280;60508;42.622;25.416;2023-04-30T02:48:26;96473.22;;;12.49;74.76
45078;BME280;60508;42.622;25.416;2023-04-30T02:50:52;96465.38;;;12.42;75.18
45078;BME280;60508;42.622;25.416;2023-04-30T02:53:18;96460.78;;;12.37;75.27
45078;BME280;60508;42.622;25.416;2023-04-30T02:55:44;96463.19;;;12.39;75.74
45078;BME280;60508;42.622;25.416;2023-04-30T02:58:10;96469.72;;;12.53;75.13
45078;BME280;60508;42.622;25.416;2023-04-30T03:00:37;96464.53;;;12.36;75.53
45078;BME280;60508;42.622;25.416;2023-04-30T03:03:03;96476.97;;;12.48;75.79
45078;BME280;60508;42.622;25.416;2023-04-30T03:05:29;96478.63;;;12.54;76.54
45078;BME280;60508;42.622;25.416;2023-04-30T03:07:55;96471.66;;;12.63;76.65
45078;BME280;60508;42.622;25.416;2023-04-30T03:10:22;96471.94;;;12.77;76.21
45078;BME280;60508;42.622;25.416;2023-04-30T03:12:48;96470.38;;;12.91;76.30
45078;BME280;60508;42.622;25.416;2023-04-30T03:15:14;96473.41;;;13.10;75.99
45078;BME280;60508;42.622;25.416;2023-04-30T03:17:41;96469.31;;;13.03;76.50
45078;BME280;60508;42.622;25.416;2023-04-30T03:20:07;96474.19;;;13.06;75.76
45078;BME280;60508;42.622;25.416;2023-04-30T03:22:33;96467.72;;;13.02;75.94
45078;BME280;60508;42.622;25.416;2023-04-30T03:24:59;96473.91;;;12.97;76.20
45078;BME280;60508;42.622;25.416;2023-04-30T03:27:26;96468.47;;;12.82;76.57
45078;BME280;60508;42.622;25.416;2023-04-30T03:29:52;96469.56;;;12.81;76.64
45078;BME280;60508;42.622;25.416;2023-04-30T03:32:17;96479.50;;;12.70;76.23
45078;BME280;60508;42.622;25.416;2023-04-30T03:34:43;96471.13;;;12.71;76.98
45078;BME280;60508;42.622;25.416;2023-04-30T03:37:09;96481.09;;;12.71;75.82
45078;BME280;60508;42.622;25.416;2023-04-30T03:39:35;96478.97;;;12.73;76.21
45078;BME280;60508;42.622;25.416;2023-04-30T03:42:02;96485.91;;;12.58;77.92
45078;BME280;60508;42.622;25.416;2023-04-30T03:44:28;96483.25;;;12.69;77.55
45078;BME280;60508;42.622;25.416;2023-04-30T03:46:54;96485.97;;;12.74;76.57
45078;BME280;60508;42.622;25.416;2023-04-30T03:49:20;96483.22;;;12.64;76.32
45078;BME280;60508;42.622;25.416;2023-04-30T03:51:46;96490.47;;;12.53;78.14
45078;BME280;60508;42.622;25.416;2023-04-30T03:54:12;96487.63;;;12.27;79.41
45078;BME280;60508;42.622;25.416;2023-04-30T03:56:38;96497.72;;;12.42;80.71
45078;BME280;60508;42.622;25.416;2023-04-30T03:59:06;96501.50;;;12.51;79.57
45078;BME280;60508;42.622;25.416;2023-04-30T04:01:32;96501.00;;;12.59;77.60
45078;BME280;60508;42.622;25.416;2023-04-30T04:03:58;96497.91;;;12.30;77.46
45078;BME280;60508;42.622;25.416;2023-04-30T04:06:25;96498.59;;;12.10;78.00
45078;BME280;60508;42.622;25.416;2023-04-30T04:08:52;96506.91;;;12.03;79.93
45078;BME280;60508;42.622;25.416;2023-04-30T04:11:18;96502.81;;;11.63;81.28
45078;BME280;60508;42.622;25.416;2023-04-30T04:13:45;96496.91;;;11.99;81.45
45078;BME280;60508;42.622;25.416;2023-04-30T04:16:12;96503.47;;;12.13;81.52
45078;BME280;60508;42.622;25.416;2023-04-30T04:18:39;96504.25;;;12.09;82.39
45078;BME280;60508;42.622;25.416;2023-04-30T04:21:05;96496.19;;;12.14;82.54
45078;BME280;60508;42.622;25.416;2023-04-30T04:23:31;96490.47;;;12.00;83.93
45078;BME280;60508;42.622;25.416;2023-04-30T04:25:57;96510.16;;;12.05;84.15
45078;BME280;60508;42.622;25.416;2023-04-30T04:28:23;96495.09;;;12.10;84.10
45078;BME280;60508;42.622;25.416;2023-04-30T04:30:51;96500.84;;;12.29;83.80
45078;BME280;60508;42.622;25.416;2023-04-30T04:33:17;96501.47;;;12.41;82.31
45078;BME280;60508;42.622;25.416;2023-04-30T04:35:43;96502.34;;;12.52;81.55
45078;BME280;60508;42.622;25.416;2023-04-30T04:38:09;96490.44;;;12.48;81.81
45078;BME280;60508;42.622;25.416;2023-04-30T04:40:35;96510.91;;;12.44;82.58
45078;BME280;60508;42.622;25.416;2023-04-30T04:43:02;96502.63;;;12.60;81.40
45078;BME280;60508;42.622;25.416;2023-04-30T04:45:29;96505.34;;;12.71;80.37
45078;BME280;60508;42.622;25.416;2023-04-30T04:47:56;96511.94;;;13.01;78.99
45078;BME280;60508;42.622;25.416;2023-04-30T04:50:22;96504.44;;;13.13;76.54
45078;BME280;60508;42.622;25.416;2023-04-30T04:52:47;96504.13;;;13.04;78.00
45078;BME280;60508;42.622;25.416;2023-04-30T04:55:13;96499.75;;;12.88;78.01
45078;BME280;60508;42.622;25.416;2023-04-30T04:57:40;96505.97;;;12.93;76.99
45078;BME280;60508;42.622;25.416;2023-04-30T05:00:07;96511.06;;;12.74;78.30
45078;BME280;60508;42.622;25.416;2023-04-30T05:02:34;96519.91;;;12.65;78.64
45078;BME280;60508;42.622;25.416;2023-04-30T05:05:00;96515.03;;;12.56;76.99
45078;BME280;60508;42.622;25.416;2023-04-30T05:07:27;96517.41;;;12.53;75.65
45078;BME280;60508;42.622;25.416;2023-04-30T05:09:54;96506.34;;;12.49;75.59
45078;BME280;60508;42.622;25.416;2023-04-30T05:12:20;96519.31;;;12.57;74.45
45078;BME280;60508;42.622;25.416;2023-04-30T05:14:46;96512.25;;;12.46;74.38
45078;BME280;60508;42.622;25.416;2023-04-30T05:17:12;96520.16;;;12.63;72.18
45078;BME280;60508;42.622;25.416;2023-04-30T05:19:38;96518.63;;;12.77;72.68
45078;BME280;60508;42.622;25.416;2023-04-30T05:22:04;96517.06;;;12.92;73.42
45078;BME280;60508;42.622;25.416;2023-04-30T05:24:30;96516.28;;;13.12;73.39
45078;BME280;60508;42.622;25.416;2023-04-30T05:26:56;96516.81;;;13.04;72.58
45078;BME280;60508;42.622;25.416;2023-04-30T05:29:22;96512.47;;;13.03;72.25
45078;BME280;60508;42.622;25.416;2023-04-30T05:31:49;96506.28;;;13.07;71.98
45078;BME280;60508;42.622;25.416;2023-04-30T05:34:15;96515.50;;;13.17;71.79
45078;BME280;60508;42.622;25.416;2023-04-30T05:36:41;96518.13;;;13.01;71.56
45078;BME280;60508;42.622;25.416;2023-04-30T05:39:07;96518.72;;;13.08;71.11
45078;BME280;60508;42.622;25.416;2023-04-30T05:41:33;96510.38;;;13.20;68.20
45078;BME280;60508;42.622;25.416;2023-04-30T05:44:00;96515.00;;;13.35;68.41
45078;BME280;60508;42.622;25.416;2023-04-30T05:46:27;96516.63;;;13.41;68.93
45078;BME280;60508;42.622;25.416;2023-04-30T05:48:54;96516.91;;;13.76;69.09
45078;BME280;60508;42.622;25.416;2023-04-30T05:51:20;96519.63;;;13.60;66.60
45078;BME280;60508;42.622;25.416;2023-04-30T05:53:47;96513.41;;;13.49;64.53
45078;BME280;60508;42.622;25.416;2023-04-30T05:56:13;96516.66;;;13.57;65.11
45078;BME280;60508;42.622;25.416;2023-04-30T05:58:39;96515.56;;;13.83;64.74
45078;BME280;60508;42.622;25.416;2023-04-30T06:01:05;96523.13;;;13.97;63.99
45078;BME280;60508;42.622;25.416;2023-04-30T06:03:31;96522.34;;;14.06;61.95
45078;BME280;60508;42.622;25.416;2023-04-30T06:05:57;96516.09;;;14.11;60.99
45078;BME280;60508;42.622;25.416;2023-04-30T06:08:51;96512.31;;;14.07;60.86
45078;BME280;60508;42.622;25.416;2023-04-30T06:11:18;96510.97;;;13.99;61.59
45078;BME280;60508;42.622;25.416;2023-04-30T06:13:46;96515.25;;;14.21;58.88
45078;BME280;60508;42.622;25.416;2023-04-30T06:16:13;96514.44;;;14.31;59.67
45078;BME280;60508;42.622;25.416;2023-04-30T06:18:39;96516.59;;;14.39;56.45
45078;BME280;60508;42.622;25.416;2023-04-30T06:21:05;96518.50;;;14.28;56.03
45078;BME280;60508;42.622;25.416;2023-04-30T06:23:31;96513.06;;;14.38;56.60
45078;BME280;60508;42.622;25.416;2023-04-30T06:25:57;96526.28;;;14.45;56.48
45078;BME280;60508;42.622;25.416;2023-04-30T06:28:24;96524.38;;;14.61;56.84
45078;BME280;60508;42.622;25.416;2023-04-30T06:30:50;96527.03;;;14.76;57.11
45078;BME280;60508;42.622;25.416;2023-04-30T06:33:16;96521.38;;;14.73;55.77
45078;BME280;60508;42.622;25.416;2023-04-30T06:35:42;96523.78;;;14.79;57.97
45078;BME280;60508;42.622;25.416;2023-04-30T06:38:08;96518.63;;;14.83;58.55
45078;BME280;60508;42.622;25.416;2023-04-30T06:40:34;96521.34;;;14.83;58.66
45078;BME280;60508;42.622;25.416;2023-04-30T06:43:00;96523.75;;;14.85;56.97
45078;BME280;60508;42.622;25.416;2023-04-30T06:45:26;96519.69;;;14.92;56.46
45078;BME280;60508;42.622;25.416;2023-04-30T06:47:53;96515.56;;;15.00;58.12
45078;BME280;60508;42.622;25.416;2023-04-30T06:50:19;96518.50;;;15.09;56.29
45078;BME280;60508;42.622;25.416;2023-04-30T06:52:47;96523.66;;;15.10;56.44
45078;BME280;60508;42.622;25.416;2023-04-30T06:55:13;96506.53;;;15.20;57.33
45078;BME280;60508;42.622;25.416;2023-04-30T06:57:39;96525.25;;;15.11;56.03
45078;BME280;60508;42.622;25.416;2023-04-30T07:00:06;96525.72;;;15.24;56.40
45078;BME280;60508;42.622;25.416;2023-04-30T07:02:32;96523.78;;;15.34;55.58
45078;BME280;60508;42.622;25.416;2023-04-30T07:04:58;96516.69;;;15.44;54.96
45078;BME280;60508;42.622;25.416;2023-04-30T07:07:24;96519.59;;;15.52;53.43
45078;BME280;60508;42.622;25.416;2023-04-30T07:09:50;96521.44;;;15.62;53.86
45078;BME280;60508;42.622;25.416;2023-04-30T07:12:18;96520.03;;;15.70;51.52
45078;BME280;60508;42.622;25.416;2023-04-30T07:14:44;96527.91;;;15.66;51.27
45078;BME280;60508;42.622;25.416;2023-04-30T07:17:10;96513.47;;;15.81;52.00
45078;BME280;60508;42.622;25.416;2023-04-30T07:19:36;96524.09;;;16.07;51.53
45078;BME280;60508;42.622;25.416;2023-04-30T07:22:03;96509.91;;;16.15;51.83
45078;BME280;60508;42.622;25.416;2023-04-30T07:24:29;96516.94;;;16.16;50.41
45078;BME280;60508;42.622;25.416;2023-04-30T07:26:54;96513.88;;;15.94;49.11
45078;BME280;60508;42.622;25.416;2023-04-30T07:29:21;96523.59;;;16.00;48.90
45078;BME280;60508;42.622;25.416;2023-04-30T07:31:47;96516.34;;;15.90;48.03
45078;BME280;60508;42.622;25.416;2023-04-30T07:34:13;96515.22;;;15.96;47.22
45078;BME280;60508;42.622;25.416;2023-04-30T07:36:39;96518.44;;;15.98;47.14
45078;BME280;60508;42.622;25.416;2023-04-30T07:39:05;96511.50;;;16.16;47.40
45078;BME280;60508;42.622;25.416;2023-04-30T07:41:32;96515.19;;;16.55;47.14
45078;BME280;60508;42.622;25.416;2023-04-30T07:43:59;96518.19;;;16.53;46.66
45078;BME280;60508;42.622;25.416;2023-04-30T07:46:25;96529.66;;;16.45;48.06
45078;BME280;60508;42.622;25.416;2023-04-30T07:48:51;96504.91;;;16.52;46.43
45078;BME280;60508;42.622;25.416;2023-04-30T07:51:17;96520.09;;;16.77;46.05
45078;BME280;60508;42.622;25.416;2023-04-30T07:53:43;96515.47;;;17.02;45.88
45078;BME280;60508;42.622;25.416;2023-04-30T07:56:10;96510.63;;;16.98;45.56
45078;BME280;60508;42.622;25.416;2023-04-30T07:58:35;96518.63;;;16.90;45.98
45078;BME280;60508;42.622;25.416;2023-04-30T08:01:01;96514.16;;;16.99;46.41
45078;BME280;60508;42.622;25.416;2023-04-30T08:03:28;96515.91;;;16.90;44.56
45078;BME280;60508;42.622;25.416;2023-04-30T08:05:55;96520.09;;;16.77;45.12
45078;BME280;60508;42.622;25.416;2023-04-30T08:08:46;96518.03;;;16.69;45.17
45078;BME280;60508;42.622;25.416;2023-04-30T08:11:12;96504.78;;;17.10;44.55
45078;BME280;60508;42.622;25.416;2023-04-30T08:13:40;96499.22;;;17.59;44.98
45078;BME280;60508;42.622;25.416;2023-04-30T08:16:07;96507.31;;;17.97;44.14
45078;BME280;60508;42.622;25.416;2023-04-30T08:18:34;96511.56;;;18.03;44.13
45078;BME280;60508;42.622;25.416;2023-04-30T08:21:00;96492.44;;;18.08;44.11
45078;BME280;60508;42.622;25.416;2023-04-30T08:23:26;96502.31;;;18.18;43.10
45078;BME280;60508;42.622;25.416;2023-04-30T08:25:52;96500.88;;;17.93;43.94
45078;BME280;60508;42.622;25.416;2023-04-30T08:28:18;96511.84;;;17.82;42.50
45078;BME280;60508;42.622;25.416;2023-04-30T08:30:45;96481.50;;;17.42;42.65
45078;BME280;60508;42.622;25.416;2023-04-30T08:33:11;96496.22;;;17.74;41.91
45078;BME280;60508;42.622;25.416;2023-04-30T08:35:37;96469.16;;;17.69;42.94
45078;BME280;60508;42.622;25.416;2023-04-30T08:38:03;96495.53;;;18.01;42.15
45078;BME280;60508;42.622;25.416;2023-04-30T08:40:30;96483.19;;;18.09;42.42
45078;BME280;60508;42.622;25.416;2023-04-30T08:43:04;96485.38;;;17.55;41.96
45078;BME280;60508;42.622;25.416;2023-04-30T08:45:32;96487.94;;;17.84;42.85
45078;BME280;60508;42.622;25.416;2023-04-30T08:47:58;96479.69;;;18.22;42.12
45078;BME280;60508;42.622;25.416;2023-04-30T08:50:26;96476.88;;;18.41;42.02
45078;BME280;60508;42.622;25.416;2023-04-30T08:52:52;96488.91;;;18.96;41.81
45078;BME280;60508;42.622;25.416;2023-04-30T08:55:19;96484.09;;;19.52;38.72
45078;BME280;60508;42.622;25.416;2023-04-30T08:57:45;96494.50;;;19.73;38.95
45078;BME280;60508;42.622;25.416;2023-04-30T09:00:11;96479.47;;;19.75;37.70
45078;BME280;60508;42.622;25.416;2023-04-30T09:02:39;96491.47;;;20.19;38.03
45078;BME280;60508;42.622;25.416;2023-04-30T09:05:10;96479.56;;;20.15;37.43
45078;BME280;60508;42.622;25.416;2023-04-30T09:07:39;96474.44;;;20.85;37.11
45078;BME280;60508;42.622;25.416;2023-04-30T09:10:17;96476.00;;;20.37;37.59
45078;BME280;60508;42.622;25.416;2023-04-30T09:12:56;96486.66;;;19.71;38.83
45078;BME280;60508;42.622;25.416;2023-04-30T09:15:22;96484.41;;;19.14;39.45
45078;BME280;60508;42.622;25.416;2023-04-30T09:17:48;96483.84;;;18.89;39.01
45078;BME280;60508;42.622;25.416;2023-04-30T09:20:14;96480.72;;;18.96;39.39
45078;BME280;60508;42.622;25.416;2023-04-30T09:22:41;96481.13;;;18.89;38.89
45078;BME280;60508;42.622;25.416;2023-04-30T09:25:08;96474.25;;;18.64;39.89
45078;BME280;60508;42.622;25.416;2023-04-30T09:27:34;96463.78;;;18.43;40.30
45078;BME280;60508;42.622;25.416;2023-04-30T09:30:01;96476.97;;;18.22;39.78
45078;BME280;60508;42.622;25.416;2023-04-30T09:32:27;96479.69;;;18.50;40.58
45078;BME280;60508;42.622;25.416;2023-04-30T09:34:54;96476.97;;;18.78;40.35
45078;BME280;60508;42.622;25.416;2023-04-30T09:37:20;96476.78;;;18.88;39.40
45078;BME280;60508;42.622;25.416;2023-04-30T09:39:50;96486.75;;;19.07;39.50
45078;BME280;60508;42.622;25.416;2023-04-30T09:42:17;96480.00;;;18.76;39.12
45078;BME280;60508;42.622;25.416;2023-04-30T09:44:46;96479.28;;;18.98;38.69
45078;BME280;60508;42.622;25.416;2023-04-30T09:47:17;96477.34;;;19.13;38.58
45078;BME280;60508;42.622;25.416;2023-04-30T09:49:48;96472.78;;;19.22;38.47
45078;BME280;60508;42.622;25.416;2023-04-30T09:52:17;96473.34;;;18.96;38.14
45078;BME280;60508;42.622;25.416;2023-04-30T09:54:44;96469.22;;;19.36;38.70
45078;BME280;60508;42.622;25.416;2023-04-30T09:57:12;96449.25;;;19.63;37.48
45078;BME280;60508;42.622;25.416;2023-04-30T09:59:43;96452.22;;;20.38;37.14
45078;BME280;60508;42.622;25.416;2023-04-30T10:02:12;96458.91;;;21.21;35.14
45078;BME280;60508;42.622;25.416;2023-04-30T10:04:41;96461.59;;;20.94;34.69
45078;BME280;60508;42.622;25.416;2023-04-30T10:07:11;96459.44;;;20.65;35.61
45078;BME280;60508;42.622;25.416;2023-04-30T10:09:40;96462.22;;;20.83;35.73
45078;BME280;60508;42.622;25.416;2023-04-30T10:12:14;96469.13;;;20.89;35.88
45078;BME280;60508;42.622;25.416;2023-04-30T10:14:51;96466.34;;;20.71;35.99
45078;BME280;60508;42.622;25.416;2023-04-30T10:17:19;96458.91;;;20.54;35.39
45078;BME280;60508;42.622;25.416;2023-04-30T10:19:50;96473.28;;;20.06;36.52
45078;BME280;60508;42.622;25.416;2023-04-30T10:22:18;96466.47;;;19.95;37.38
45078;BME280;60508;42.622;25.416;2023-04-30T10:24:44;96467.06;;;20.14;39.63
45078;BME280;60508;42.622;25.416;2023-04-30T10:27:12;96462.63;;;20.27;38.36
45078;BME280;60508;42.622;25.416;2023-04-30T10:29:38;96477.22;;;20.22;38.43
45078;BME280;60508;42.622;25.416;2023-04-30T10:32:05;96473.78;;;19.85;37.10
45078;BME280;60508;42.622;25.416;2023-04-30T10:37:30;96465.75;;;19.80;38.03
45078;BME280;60508;42.622;25.416;2023-04-30T10:39:59;96463.47;;;20.05;39.33
45078;BME280;60508;42.622;25.416;2023-04-30T10:42:26;96461.75;;;20.49;38.40
45078;BME280;60508;42.622;25.416;2023-04-30T10:44:53;96451.13;;;20.70;37.45
45078;BME280;60508;42.622;25.416;2023-04-30T10:47:27;96450.72;;;21.47;35.45
45078;BME280;60508;42.622;25.416;2023-04-30T10:50:01;96444.72;;;22.06;34.40
45078;BME280;60508;42.622;25.416;2023-04-30T10:52:28;96446.94;;;22.04;33.79
45078;BME280;60508;42.622;25.416;2023-04-30T10:54:55;96446.69;;;21.79;34.48
45078;BME280;60508;42.622;25.416;2023-04-30T10:57:22;96436.41;;;21.59;32.96
45078;BME280;60508;42.622;25.416;2023-04-30T11:07:32;96442.72;;;19.73;37.04
45078;BME280;60508;42.622;25.416;2023-04-30T11:10:00;96429.06;;;19.86;36.88
45078;BME280;60508;42.622;25.416;2023-04-30T11:12:27;96437.47;;;19.76;36.30
45078;BME280;60508;42.622;25.416;2023-04-30T11:15:04;96438.53;;;19.89;36.28
45078;BME280;60508;42.622;25.416;2023-04-30T11:17:31;96433.50;;;20.54;35.33
45078;BME280;60508;42.622;25.416;2023-04-30T11:19:59;96434.31;;;21.12;34.58
45078;BME280;60508;42.622;25.416;2023-04-30T11:22:26;96432.06;;;20.96;34.37
45078;BME280;60508;42.622;25.416;2023-04-30T11:25:09;96432.03;;;21.05;34.50
45078;BME280;60508;42.622;25.416;2023-04-30T11:27:40;96433.03;;;21.36;34.27
45078;BME280;60508;42.622;25.416;2023-04-30T11:30:15;96420.81;;;21.68;33.43
45078;BME280;60508;42.622;25.416;2023-04-30T11:32:43;96416.81;;;22.21;33.29
45078;BME280;60508;42.622;25.416;2023-04-30T11:35:17;96419.19;;;22.32;33.32
45078;BME280;60508;42.622;25.416;2023-04-30T11:37:47;96422.41;;;22.25;33.48
45078;BME280;60508;42.622;25.416;2023-04-30T11:40:13;96414.44;;;22.11;32.20
45078;BME280;60508;42.622;25.416;2023-04-30T11:42:41;96412.75;;;21.72;33.07
45078;BME280;60508;42.622;25.416;2023-04-30T11:45:13;96415.00;;;21.78;33.00
45078;BME280;60508;42.622;25.416;2023-04-30T11:50:09;96409.13;;;23.67;30.53
45078;BME280;60508;42.622;25.416;2023-04-30T11:52:37;96408.47;;;25.27;28.44
45078;BME280;60508;42.622;25.416;2023-04-30T11:55:18;96407.44;;;26.04;27.69
45078;BME280;60508;42.622;25.416;2023-04-30T11:57:47;96413.50;;;26.26;28.13
45078;BME280;60508;42.622;25.416;2023-04-30T12:00:16;96403.94;;;24.70;25.22
45078;BME280;60508;42.622;25.416;2023-04-30T12:02:44;96409.59;;;24.03;27.68
45078;BME280;60508;42.622;25.416;2023-04-30T12:05:12;96413.09;;;23.91;27.14
45078;BME280;60508;42.622;25.416;2023-04-30T12:07:38;96405.25;;;24.02;26.82
45078;BME280;60508;42.622;25.416;2023-04-30T12:10:05;96414.31;;;23.27;27.24
45078;BME280;60508;42.622;25.416;2023-04-30T12:12:32;96407.25;;;22.45;28.45
45078;BME280;60508;42.622;25.416;2023-04-30T12:15:09;96412.81;;;22.87;27.29
45078;BME280;60508;42.622;25.416;2023-04-30T12:17:36;96406.50;;;22.18;28.54
45078;BME280;60508;42.622;25.416;2023-04-30T12:20:02;96406.75;;;21.96;28.20
45078;BME280;60508;42.622;25.416;2023-04-30T12:22:30;96411.31;;;21.65;29.12
45078;BME280;60508;42.622;25.416;2023-04-30T12:24:58;96405.03;;;21.47;29.32
45078;BME280;60508;42.622;25.416;2023-04-30T12:27:24;96408.91;;;21.73;29.42
45078;BME280;60508;42.622;25.416;2023-04-30T12:29:50;96409.09;;;21.50;30.06
45078;BME280;60508;42.622;25.416;2023-04-30T12:32:22;96407.94;;;20.41;31.37
45078;BME280;60508;42.622;25.416;2023-04-30T12:34:48;96418.50;;;19.94;32.51
45078;BME280;60508;42.622;25.416;2023-04-30T12:37:14;96406.88;;;19.79;31.76
45078;BME280;60508;42.622;25.416;2023-04-30T12:39:41;96412.44;;;19.74;32.17
45078;BME280;60508;42.622;25.416;2023-04-30T12:42:08;96405.97;;;19.93;31.39
45078;BME280;60508;42.622;25.416;2023-04-30T12:44:42;96413.69;;;19.91;31.67
45078;BME280;60508;42.622;25.416;2023-04-30T12:47:12;96407.25;;;19.64;33.36
45078;BME280;60508;42.622;25.416;2023-04-30T12:49:39;96428.06;;;19.82;34.72
45078;BME280;60508;42.622;25.416;2023-04-30T12:52:10;96420.03;;;22.32;31.56
45078;BME280;60508;42.622;25.416;2023-04-30T12:54:38;96420.56;;;22.55;34.86
45078;BME280;60508;42.622;25.416;2023-04-30T12:57:10;96409.22;;;21.19;36.12
45078;BME280;60508;42.622;25.416;2023-04-30T12:59:39;96406.44;;;20.66;35.44
45078;BME280;60508;42.622;25.416;2023-04-30T13:02:09;96395.59;;;20.43;34.72
45078;BME280;60508;42.622;25.416;2023-04-30T13:04:36;96417.44;;;20.52;35.83
45078;BME280;60508;42.622;25.416;2023-04-30T13:07:02;96407.22;;;20.18;35.25
45078;BME280;60508;42.622;25.416;2023-04-30T13:09:34;96415.31;;;20.00;34.61
45078;BME280;60508;42.622;25.416;2023-04-30T13:12:00;96408.28;;;19.99;35.08